Time;durP1;ratioP1;P1;durP2;ratioP2;P2;SDS_P1;SDS_P2;PMS_P1;PMS_P2;Temp;Humidity;BMP_temperature;BMP_pressure;BME280_temperature;BME280_humidity;BME280_pressure;Samples;Min_cycle;Max_cycle;Signal;HPM_P1;HPM_P2
2023/05/22 00:00:44;;;;;;;8.45;6.10;;;;;;;;;;5002066;28;20714;-56
2023/05/22 00:03:11;;;;;;;7.25;5.75;;;;;;;;;;4992782;28;20228;-56
2023/05/22 00:05:39;;;;;;;7.95;6.50;;;;;;;;;;5000307;28;20221;-56
2023/05/22 00:08:10;;;;;;;10.65;6.20;;;;;;;;;;4997852;28;20228;-56
2023/05/22 00:10:37;;;;;;;8.73;6.07;;;;;;;;;;5000395;28;20210;-57
2023/05/22 00:13:06;;;;;;;8.80;6.47;;;;;;;;;;5008347;28;20233;-56
2023/05/22 00:15:34;;;;;;;7.40;6.07;;;;;;;;;;5007746;28;20205;-56
2023/05/22 00:18:01;;;;;;;9.02;6.45;;;;;;;;;;5004229;28;20664;-56
2023/05/22 00:20:28;;;;;;;10.73;6.32;;;;;;;;;;5002245;28;20676;-56
2023/05/22 00:22:56;;;;;;;7.63;5.65;;;;;;;;;;5007918;28;20260;-56
2023/05/22 00:25:23;;;;;;;7.35;5.97;;;;;;;;;;5006166;28;20308;-55
2023/05/22 00:27:50;;;;;;;7.85;6.47;;;;;;;;;;4999809;28;20406;-56
2023/05/22 00:30:19;;;;;;;9.68;6.60;;;;;;;;;;4992499;28;20206;-56
2023/05/22 00:32:46;;;;;;;8.55;6.40;;;;;;;;;;5002060;28;20213;-56
2023/05/22 00:35:13;;;;;;;6.90;6.20;;;;;;;;;;4989817;28;20210;-56
2023/05/22 00:37:40;;;;;;;8.65;6.85;;;;;;;;;;5002774;28;20197;-56
2023/05/22 00:40:08;;;;;;;8.38;6.40;;;;;;;;;;4991754;28;20296;-56
2023/05/22 00:42:35;;;;;;;7.68;6.28;;;;;;;;;;5005929;28;20208;-56
2023/05/22 00:45:02;;;;;;;9.98;6.82;;;;;;;;;;4993785;28;20206;-56
2023/05/22 00:47:31;;;;;;;7.88;6.72;;;;;;;;;;4988427;28;20324;-56
2023/05/22 00:49:58;;;;;;;8.75;6.28;;;;;;;;;;4988565;28;20202;-56
2023/05/22 00:52:25;;;;;;;6.88;6.15;;;;;;;;;;4991498;28;20242;-56
2023/05/22 00:54:54;;;;;;;8.32;6.88;;;;;;;;;;5008596;28;20224;-56
2023/05/22 00:57:21;;;;;;;7.20;6.18;;;;;;;;;;4995928;28;20311;-56
2023/05/22 00:59:49;;;;;;;9.70;6.97;;;;;;;;;;4986310;28;20213;-56
2023/05/22 01:02:16;;;;;;;8.57;6.63;;;;;;;;;;4995134;28;20326;-56
2023/05/22 01:04:47;;;;;;;7.63;6.32;;;;;;;;;;4992286;28;20212;-56
2023/05/22 01:07:15;;;;;;;8.73;6.70;;;;;;;;;;4985266;28;20206;-56
2023/05/22 01:09:42;;;;;;;7.78;6.28;;;;;;;;;;5005340;28;20213;-56
2023/05/22 01:12:13;;;;;;;7.88;6.53;;;;;;;;;;5001422;28;20209;-55
2023/05/22 01:14:44;;;;;;;11.07;6.50;;;;;;;;;;4994397;28;20228;-56
2023/05/22 01:17:22;;;;;;;9.27;6.70;;;;;;;;;;5005101;28;20586;-55
2023/05/22 01:20:00;;;;;;;7.50;6.15;;;;;;;;;;4992925;28;20233;-55
2023/05/22 01:22:32;;;;;;;8.13;6.22;;;;;;;;;;5000621;28;20237;-56
2023/05/22 01:25:19;;;;;;;7.93;6.30;;;;;;;;;;4994948;28;20282;-56
2023/05/22 01:27:56;;;;;;;7.68;6.15;;;;;;;;;;4988081;28;20304;-56
2023/05/22 01:30:40;;;;;;;7.30;6.10;;;;;;;;;;4991396;28;20632;-56
2023/05/22 01:33:08;;;;;;;7.88;5.93;;;;;;;;;;5004790;28;20318;-56
2023/05/22 01:35:36;;;;;;;7.25;5.88;;;;;;;;;;4996790;28;20271;-56
2023/05/22 01:38:03;;;;;;;6.50;5.65;;;;;;;;;;5005145;28;20262;-57
2023/05/22 01:40:31;;;;;;;8.77;6.35;;;;;;;;;;5007197;28;20213;-56
2023/05/22 01:42:59;;;;;;;7.80;6.38;;;;;;;;;;4989831;28;20209;-56
2023/05/22 01:45:33;;;;;;;7.55;5.78;;;;;;;;;;5016465;28;20215;-56
2023/05/22 01:48:02;;;;;;;7.47;5.70;;;;;;;;;;5000322;28;20224;-56
2023/05/22 01:50:29;;;;;;;6.25;5.63;;;;;;;;;;5003931;28;20754;-56
2023/05/22 01:52:59;;;;;;;6.45;5.82;;;;;;;;;;5004491;28;20227;-56
2023/05/22 01:55:29;;;;;;;6.50;5.82;;;;;;;;;;4995946;28;20313;-56
2023/05/22 01:58:00;;;;;;;7.63;5.57;;;;;;;;;;5002042;28;20201;-56
2023/05/22 02:00:28;;;;;;;9.02;5.18;;;;;;;;;;5007122;28;20201;-56
2023/05/22 02:02:57;;;;;;;6.07;5.47;;;;;;;;;;4995809;28;20649;-55
2023/05/22 02:05:27;;;;;;;8.85;6.13;;;;;;;;;;4994385;28;20210;-56
2023/05/22 02:07:56;;;;;;;6.45;5.45;;;;;;;;;;4995752;28;20267;-56
2023/05/22 02:10:25;;;;;;;5.93;5.20;;;;;;;;;;4995292;28;20214;-56
2023/05/22 02:12:52;;;;;;;5.75;5.10;;;;;;;;;;5003087;28;20655;-56
2023/05/22 02:15:19;;;;;;;6.22;5.18;;;;;;;;;;4988568;28;20218;-56
2023/05/22 02:17:48;;;;;;;6.20;4.75;;;;;;;;;;5007606;28;20594;-56
2023/05/22 02:20:16;;;;;;;6.40;5.68;;;;;;;;;;5002725;28;20233;-56
2023/05/22 02:22:44;;;;;;;6.20;5.40;;;;;;;;;;5000102;28;20241;-56
2023/05/22 02:25:13;;;;;;;7.10;5.53;;;;;;;;;;4998687;28;20854;-56
2023/05/22 02:27:41;;;;;;;7.18;5.32;;;;;;;;;;4993289;28;21103;-56
2023/05/22 02:30:09;;;;;;;6.03;5.43;;;;;;;;;;5006420;28;20206;-56
2023/05/22 02:32:36;;;;;;;6.18;5.35;;;;;;;;;;5003558;28;20220;-56
2023/05/22 02:35:03;;;;;;;6.00;5.40;;;;;;;;;;4998095;28;20206;-56
2023/05/22 02:37:30;;;;;;;6.30;5.70;;;;;;;;;;4995158;28;20217;-56
2023/05/22 02:39:59;;;;;;;6.45;5.35;;;;;;;;;;5009137;28;20227;-56
2023/05/22 02:42:26;;;;;;;6.13;5.53;;;;;;;;;;5006599;28;20224;-55
2023/05/22 02:44:53;;;;;;;8.32;5.85;;;;;;;;;;5000694;28;20230;-56
2023/05/22 02:47:20;;;;;;;5.97;5.22;;;;;;;;;;4993467;28;20305;-56
2023/05/22 02:49:47;;;;;;;7.35;6.53;;;;;;;;;;4994829;28;20316;-56
2023/05/22 02:52:14;;;;;;;6.53;5.35;;;;;;;;;;4998396;28;20209;-56
2023/05/22 02:54:41;;;;;;;8.15;5.45;;;;;;;;;;5000464;28;20690;-56
2023/05/22 02:57:10;;;;;;;8.85;5.45;;;;;;;;;;5003038;28;20630;-56
2023/05/22 02:59:37;;;;;;;6.65;5.55;;;;;;;;;;5006901;28;20200;-56
2023/05/22 03:02:05;;;;;;;6.00;5.40;;;;;;;;;;4997831;28;20306;-56
2023/05/22 03:04:32;;;;;;;7.75;5.47;;;;;;;;;;5005006;28;20217;-56
2023/05/22 03:07:00;;;;;;;7.90;5.55;;;;;;;;;;4997377;28;20268;-56
2023/05/22 03:09:27;;;;;;;6.10;5.50;;;;;;;;;;5002831;28;20259;-56
2023/05/22 03:11:54;;;;;;;7.18;5.88;;;;;;;;;;5009692;28;20685;-56
2023/05/22 03:14:23;;;;;;;6.57;5.55;;;;;;;;;;5009494;28;20221;-56
2023/05/22 03:16:50;;;;;;;6.90;5.78;;;;;;;;;;5001262;28;20750;-56
2023/05/22 03:19:17;;;;;;;6.88;5.60;;;;;;;;;;4999944;28;20212;-56
2023/05/22 03:21:44;;;;;;;7.60;5.50;;;;;;;;;;4993340;28;20230;-56
2023/05/22 03:24:12;;;;;;;6.25;5.50;;;;;;;;;;4999310;28;20237;-56
2023/05/22 03:26:39;;;;;;;8.60;5.80;;;;;;;;;;5005640;28;20237;-56
2023/05/22 03:29:06;;;;;;;7.65;5.45;;;;;;;;;;4990652;28;20593;-56
2023/05/22 03:31:34;;;;;;;6.57;5.30;;;;;;;;;;4990174;28;20736;-56
2023/05/22 03:34:02;;;;;;;7.13;5.63;;;;;;;;;;4990905;28;20228;-56
2023/05/22 03:36:32;;;;;;;8.95;6.20;;;;;;;;;;4993084;28;20805;-56
2023/05/22 03:39:00;;;;;;;6.13;5.18;;;;;;;;;;5003219;28;20575;-56
2023/05/22 03:41:27;;;;;;;7.75;6.22;;;;;;;;;;5005780;28;20699;-55
2023/05/22 03:43:54;;;;;;;7.10;5.15;;;;;;;;;;5005213;28;20209;-56
2023/05/22 03:46:21;;;;;;;6.28;5.68;;;;;;;;;;5007098;28;20209;-56
2023/05/22 03:48:49;;;;;;;8.23;5.70;;;;;;;;;;5004258;28;20642;-55
2023/05/22 03:51:16;;;;;;;7.45;5.55;;;;;;;;;;5002954;28;20296;-56
2023/05/22 03:53:43;;;;;;;7.45;6.15;;;;;;;;;;4999039;28;20205;-56
2023/05/22 03:56:10;;;;;;;6.47;5.65;;;;;;;;;;4990579;28;20672;-56
2023/05/22 03:58:37;;;;;;;8.27;6.55;;;;;;;;;;4990906;28;20210;-57
2023/05/22 04:01:04;;;;;;;10.15;6.43;;;;;;;;;;4997482;28;20229;-56
2023/05/22 04:03:31;;;;;;;8.45;6.45;;;;;;;;;;4996247;28;20246;-56
2023/05/22 04:06:00;;;;;;;7.40;5.72;;;;;;;;;;4996921;28;20452;-56
2023/05/22 04:08:27;;;;;;;7.18;5.80;;;;;;;;;;4993559;28;20221;-57
2023/05/22 04:10:54;;;;;;;6.25;4.93;;;;;;;;;;5006101;28;20556;-57
2023/05/22 04:13:21;;;;;;;7.45;6.28;;;;;;;;;;4992781;28;20209;-56
2023/05/22 04:15:48;;;;;;;6.82;5.85;;;;;;;;;;4997202;28;20227;-56
2023/05/22 04:18:16;;;;;;;7.70;6.00;;;;;;;;;;5006428;28;20207;-57
2023/05/22 04:20:43;;;;;;;8.45;6.13;;;;;;;;;;5008116;28;20493;-56
2023/05/22 04:23:12;;;;;;;9.00;5.15;;;;;;;;;;5005856;28;20245;-56
2023/05/22 04:25:39;;;;;;;6.18;5.47;;;;;;;;;;5005880;28;20202;-56
2023/05/22 04:28:08;;;;;;;7.03;5.53;;;;;;;;;;5004057;28;20220;-56
2023/05/22 04:30:35;;;;;;;6.90;5.78;;;;;;;;;;4998597;28;20220;-56
2023/05/22 04:33:04;;;;;;;7.93;5.40;;;;;;;;;;4989872;28;20206;-56
2023/05/22 04:35:31;;;;;;;7.72;6.20;;;;;;;;;;4989023;28;20632;-57
2023/05/22 04:38:00;;;;;;;7.55;5.55;;;;;;;;;;4993257;28;20292;-57
2023/05/22 04:40:32;;;;;;;8.55;5.72;;;;;;;;;;5000632;28;20205;-56
2023/05/22 04:42:59;;;;;;;9.50;6.50;;;;;;;;;;4995987;28;20210;-56
2023/05/22 04:45:27;;;;;;;7.60;6.43;;;;;;;;;;5002471;28;20217;-56
2023/05/22 04:47:54;;;;;;;9.40;6.28;;;;;;;;;;5000085;28;20300;-56
2023/05/22 04:50:22;;;;;;;7.57;5.50;;;;;;;;;;4996104;28;20253;-56
2023/05/22 04:52:49;;;;;;;7.50;5.97;;;;;;;;;;5001027;28;20297;-56
2023/05/22 04:55:17;;;;;;;11.15;5.53;;;;;;;;;;4988757;28;20213;-56
2023/05/22 04:57:46;;;;;;;6.22;5.63;;;;;;;;;;4997975;28;20209;-55
2023/05/22 05:00:15;;;;;;;9.85;5.85;;;;;;;;;;4999908;28;20201;-56
2023/05/22 05:02:42;;;;;;;11.00;6.18;;;;;;;;;;4992357;28;20205;-56
2023/05/22 05:05:09;;;;;;;6.90;5.43;;;;;;;;;;5007305;28;20209;-57
2023/05/22 05:07:40;;;;;;;7.90;6.20;;;;;;;;;;5005910;28;20758;-56
2023/05/22 05:10:08;;;;;;;8.93;6.18;;;;;;;;;;4998351;28;20307;-56
2023/05/22 05:12:35;;;;;;;9.80;6.47;;;;;;;;;;4999924;28;20217;-56
2023/05/22 05:15:03;;;;;;;6.80;5.85;;;;;;;;;;4987963;28;20210;-56
2023/05/22 05:17:30;;;;;;;8.98;6.50;;;;;;;;;;4992682;28;20216;-56
2023/05/22 05:19:57;;;;;;;10.38;6.53;;;;;;;;;;5005352;28;20228;-56
2023/05/22 05:22:24;;;;;;;6.32;5.68;;;;;;;;;;4990179;28;20233;-56
2023/05/22 05:24:52;;;;;;;8.32;6.43;;;;;;;;;;5005270;28;20200;-58
2023/05/22 05:27:19;;;;;;;10.95;5.63;;;;;;;;;;5003735;28;20205;-57
2023/05/22 05:29:46;;;;;;;6.97;6.32;;;;;;;;;;4992788;28;20259;-60
2023/05/22 05:32:15;;;;;;;8.50;6.45;;;;;;;;;;4998627;28;20213;-57
2023/05/22 05:34:42;;;;;;;7.20;6.28;;;;;;;;;;5001732;28;20217;-57
2023/05/22 05:37:09;;;;;;;6.82;6.07;;;;;;;;;;5007498;28;20221;-57
2023/05/22 05:39:36;;;;;;;7.93;6.57;;;;;;;;;;5005054;28;20216;-58
2023/05/22 05:42:03;;;;;;;7.60;6.38;;;;;;;;;;4997818;28;20209;-57
2023/05/22 05:44:30;;;;;;;6.22;5.65;;;;;;;;;;4995420;28;20209;-57
2023/05/22 05:46:57;;;;;;;8.77;6.97;;;;;;;;;;4989729;28;20724;-56
2023/05/22 05:49:25;;;;;;;7.50;6.45;;;;;;;;;;4994358;28;20235;-57
2023/05/22 05:51:52;;;;;;;7.25;6.40;;;;;;;;;;5005589;28;20213;-57
2023/05/22 05:54:20;;;;;;;7.60;6.50;;;;;;;;;;5007314;28;20639;-57
2023/05/22 05:56:47;;;;;;;7.53;6.35;;;;;;;;;;5007277;28;20260;-57
2023/05/22 05:59:14;;;;;;;8.50;6.35;;;;;;;;;;5008887;28;20209;-58
2023/05/22 06:01:44;;;;;;;9.75;7.05;;;;;;;;;;5010372;28;20208;-58
2023/05/22 06:04:11;;;;;;;9.88;7.43;;;;;;;;;;5010975;28;20213;-57
2023/05/22 06:06:41;;;;;;;7.57;6.80;;;;;;;;;;5011082;28;20209;-57
2023/05/22 06:09:08;;;;;;;9.77;7.05;;;;;;;;;;5011038;28;20235;-57
2023/05/22 06:11:36;;;;;;;10.82;7.80;;;;;;;;;;5010986;28;20299;-57
2023/05/22 06:14:03;;;;;;;8.70;6.93;;;;;;;;;;5011055;28;20209;-57
2023/05/22 06:16:30;;;;;;;9.80;7.30;;;;;;;;;;5010969;28;20347;-58
2023/05/22 06:18:58;;;;;;;8.52;7.28;;;;;;;;;;5010636;28;20696;-57
2023/05/22 06:21:25;;;;;;;7.85;6.90;;;;;;;;;;5010729;28;20239;-57
2023/05/22 06:23:54;;;;;;;10.02;7.18;;;;;;;;;;5010656;28;20244;-58
2023/05/22 06:26:22;;;;;;;9.43;7.45;;;;;;;;;;5010743;28;20647;-58
2023/05/22 06:28:50;;;;;;;9.85;7.47;;;;;;;;;;5010709;28;20217;-58
2023/05/22 06:31:17;;;;;;;7.75;6.80;;;;;;;;;;5010572;28;20231;-58
2023/05/22 06:33:44;;;;;;;10.20;8.05;;;;;;;;;;5009897;28;20236;-58
2023/05/22 06:36:11;;;;;;;8.35;7.30;;;;;;;;;;5010505;28;20803;-57
2023/05/22 06:38:38;;;;;;;8.63;7.22;;;;;;;;;;5010168;28;20675;-57
2023/05/22 06:41:07;;;;;;;8.88;6.60;;;;;;;;;;5009879;28;20220;-57
2023/05/22 06:43:34;;;;;;;8.20;6.75;;;;;;;;;;5009839;28;20239;-58
2023/05/22 06:46:01;;;;;;;10.05;7.60;;;;;;;;;;5010227;28;20255;-57
2023/05/22 06:48:28;;;;;;;12.82;7.88;;;;;;;;;;5009788;28;20220;-56
2023/05/22 06:50:55;;;;;;;9.88;7.57;;;;;;;;;;5009242;28;20260;-57
2023/05/22 06:53:24;;;;;;;7.65;6.85;;;;;;;;;;4995503;28;20206;-57
2023/05/22 06:55:51;;;;;;;7.55;6.82;;;;;;;;;;5027729;28;20259;-57
2023/05/22 06:58:19;;;;;;;7.55;6.82;;;;;;;;;;5029723;28;20208;-57
2023/05/22 07:00:46;;;;;;;7.43;6.65;;;;;;;;;;5029823;28;20600;-57
2023/05/22 07:03:13;;;;;;;9.02;6.68;;;;;;;;;;5016810;28;20222;-57
2023/05/22 07:05:40;;;;;;;8.88;7.03;;;;;;;;;;5008201;28;20206;-57
2023/05/22 07:08:08;;;;;;;12.55;6.40;;;;;;;;;;5009913;28;20213;-56
2023/05/22 07:10:35;;;;;;;9.68;7.35;;;;;;;;;;5006757;28;20316;-57
2023/05/22 07:13:02;;;;;;;6.93;6.15;;;;;;;;;;5009733;28;20242;-57
2023/05/22 07:15:31;;;;;;;7.00;6.32;;;;;;;;;;5006178;28;20197;-57
2023/05/22 07:17:58;;;;;;;9.40;7.45;;;;;;;;;;4995952;28;20228;-57
2023/05/22 07:20:25;;;;;;;8.55;6.80;;;;;;;;;;5003981;28;20231;-57
2023/05/22 07:22:52;;;;;;;7.35;6.65;;;;;;;;;;4997387;28;20244;-57
2023/05/22 07:25:19;;;;;;;8.20;7.20;;;;;;;;;;4989932;28;20209;-57
2023/05/22 07:27:46;;;;;;;7.85;6.70;;;;;;;;;;5004235;28;20227;-57
2023/05/22 07:30:14;;;;;;;8.50;6.75;;;;;;;;;;5009127;28;20723;-57
2023/05/22 07:32:42;;;;;;;8.75;6.60;;;;;;;;;;4995200;28;20585;-57
2023/05/22 07:35:10;;;;;;;6.38;5.78;;;;;;;;;;4989626;28;20221;-57
2023/05/22 07:37:38;;;;;;;6.53;5.90;;;;;;;;;;5001673;28;20236;-57
2023/05/22 07:40:06;;;;;;;6.55;6.00;;;;;;;;;;5009107;28;20682;-57
2023/05/22 07:42:33;;;;;;;7.43;6.57;;;;;;;;;;5001310;28;20297;-57
2023/05/22 07:45:00;;;;;;;6.80;6.20;;;;;;;;;;4989694;28;20217;-56
2023/05/22 07:47:28;;;;;;;8.88;6.57;;;;;;;;;;4998830;28;20205;-57
2023/05/22 07:49:56;;;;;;;8.73;6.43;;;;;;;;;;5007416;28;20221;-57
2023/05/22 07:52:23;;;;;;;10.60;7.10;;;;;;;;;;5009231;28;20209;-58
2023/05/22 07:54:50;;;;;;;8.77;6.85;;;;;;;;;;5003742;28;20229;-57
2023/05/22 07:57:17;;;;;;;8.00;7.05;;;;;;;;;;4989348;28;20241;-57
2023/05/22 07:59:44;;;;;;;8.73;7.30;;;;;;;;;;4990342;28;20208;-57
2023/05/22 08:02:12;;;;;;;7.35;6.60;;;;;;;;;;4989144;28;20210;-57
2023/05/22 08:04:40;;;;;;;9.68;7.68;;;;;;;;;;4990483;28;20296;-57
2023/05/22 08:07:08;;;;;;;8.23;7.00;;;;;;;;;;4989371;28;20241;-57
2023/05/22 08:09:35;;;;;;;7.35;6.63;;;;;;;;;;4991168;28;20228;-57
2023/05/22 08:12:02;;;;;;;6.72;6.13;;;;;;;;;;4999240;28;20208;-56
2023/05/22 08:14:29;;;;;;;8.98;7.55;;;;;;;;;;5002655;28;20208;-56
2023/05/22 08:16:57;;;;;;;7.95;7.00;;;;;;;;;;4988847;28;20210;-57
2023/05/22 08:19:25;;;;;;;7.85;6.93;;;;;;;;;;4995361;28;20258;-57
2023/05/22 08:21:56;;;;;;;10.07;7.57;;;;;;;;;;5007833;28;20773;-58
2023/05/22 08:24:27;;;;;;;8.50;7.13;;;;;;;;;;5006681;28;20317;-57
2023/05/22 08:26:54;;;;;;;9.52;8.18;;;;;;;;;;5007375;28;20220;-57
2023/05/22 08:29:21;;;;;;;12.27;7.57;;;;;;;;;;5006089;28;20209;-56
2023/05/22 08:31:48;;;;;;;8.07;6.78;;;;;;;;;;5007945;28;20217;-56
2023/05/22 08:34:15;;;;;;;9.75;7.43;;;;;;;;;;5006022;28;20305;-57
2023/05/22 08:36:42;;;;;;;7.60;6.68;;;;;;;;;;5007703;28;20212;-57
2023/05/22 08:39:10;;;;;;;7.57;6.85;;;;;;;;;;4995488;28;20221;-57
2023/05/22 08:41:39;;;;;;;9.27;7.25;;;;;;;;;;4995204;28;20205;-59
2023/05/22 08:44:06;;;;;;;7.88;6.95;;;;;;;;;;5006052;28;20723;-58
2023/05/22 08:46:36;;;;;;;7.78;7.03;;;;;;;;;;5007761;28;20592;-59
2023/05/22 08:49:04;;;;;;;8.60;6.43;;;;;;;;;;4997538;28;20218;-59
2023/05/22 08:51:34;;;;;;;7.43;6.50;;;;;;;;;;4988030;28;20233;-59
2023/05/22 08:54:06;;;;;;;6.65;5.95;;;;;;;;;;4989131;28;20202;-60
2023/05/22 08:56:33;;;;;;;7.32;6.60;;;;;;;;;;4988090;28;20237;-58
2023/05/22 08:59:01;;;;;;;8.45;6.63;;;;;;;;;;4993898;28;20935;-63
2023/05/22 09:01:29;;;;;;;7.47;6.60;;;;;;;;;;4997483;28;20205;-60
2023/05/22 09:03:56;;;;;;;6.90;6.18;;;;;;;;;;5010652;28;20231;-59
2023/05/22 09:06:23;;;;;;;8.85;6.95;;;;;;;;;;5002359;28;20201;-59
2023/05/22 09:08:50;;;;;;;7.38;6.68;;;;;;;;;;5008372;28;20221;-59
2023/05/22 09:11:18;;;;;;;7.20;6.50;;;;;;;;;;5005116;28;20706;-59
2023/05/22 09:13:45;;;;;;;6.80;6.10;;;;;;;;;;5012150;28;20282;-59
2023/05/22 09:16:37;;;;;;;6.72;5.90;;;;;;;;;;4999507;28;20220;-59
2023/05/22 09:19:05;;;;;;;6.75;6.15;;;;;;;;;;5000202;28;20218;-60
2023/05/22 09:21:32;;;;;;;8.85;7.47;;;;;;;;;;4995598;28;20300;-59
2023/05/22 09:24:00;;;;;;;7.68;6.93;;;;;;;;;;5011706;28;20245;-59
2023/05/22 09:26:28;;;;;;;8.70;7.18;;;;;;;;;;5009481;28;20243;-59
2023/05/22 09:28:55;;;;;;;9.48;7.40;;;;;;;;;;5005499;28;20209;-59
2023/05/22 09:31:22;;;;;;;7.57;6.78;;;;;;;;;;5003730;28;20228;-59
2023/05/22 09:33:50;;;;;;;8.13;7.30;;;;;;;;;;5006254;28;20209;-59
2023/05/22 09:36:18;;;;;;;7.40;6.70;;;;;;;;;;5009647;28;20644;-60
2023/05/22 09:38:45;;;;;;;7.18;6.43;;;;;;;;;;5010006;28;20962;-59
2023/05/22 09:41:12;;;;;;;7.72;6.43;;;;;;;;;;5005954;28;20200;-60
2023/05/22 09:43:39;;;;;;;7.57;6.85;;;;;;;;;;4997952;28;20301;-60
2023/05/22 09:46:06;;;;;;;8.05;6.68;;;;;;;;;;5000756;28;20209;-59
2023/05/22 09:48:37;;;;;;;8.10;7.10;;;;;;;;;;4992938;28;20213;-59
2023/05/22 09:51:05;;;;;;;8.35;7.55;;;;;;;;;;5009443;28;20239;-58
2023/05/22 09:53:33;;;;;;;8.73;7.50;;;;;;;;;;4996894;28;20223;-61
2023/05/22 09:56:01;;;;;;;8.00;7.20;;;;;;;;;;5009582;28;20213;-58
2023/05/22 09:58:28;;;;;;;9.65;7.60;;;;;;;;;;5000138;28;20197;-58
2023/05/22 10:00:56;;;;;;;9.63;6.85;;;;;;;;;;5008945;28;20215;-59
2023/05/22 10:03:25;;;;;;;10.00;7.60;;;;;;;;;;5010434;28;20319;-59
2023/05/22 10:05:52;;;;;;;8.10;7.35;;;;;;;;;;5010098;28;20205;-59
2023/05/22 10:08:23;;;;;;;8.20;7.13;;;;;;;;;;5010190;28;20216;-60
2023/05/22 10:10:52;;;;;;;10.80;7.32;;;;;;;;;;5010508;28;20318;-59
2023/05/22 10:13:19;;;;;;;7.60;6.47;;;;;;;;;;5010770;28;20487;-59
2023/05/22 10:15:47;;;;;;;8.20;7.38;;;;;;;;;;5010389;28;20710;-59
2023/05/22 10:18:15;;;;;;;8.15;7.03;;;;;;;;;;5009997;28;20323;-59
2023/05/22 10:20:42;;;;;;;7.45;6.75;;;;;;;;;;5010381;28;20443;-59
2023/05/22 10:23:09;;;;;;;8.65;7.55;;;;;;;;;;5010145;28;20245;-59
2023/05/22 10:25:38;;;;;;;8.68;7.07;;;;;;;;;;5010251;28;20209;-60
2023/05/22 10:28:06;;;;;;;8.30;7.25;;;;;;;;;;5010289;28;20240;-59
2023/05/22 10:30:37;;;;;;;8.27;7.10;;;;;;;;;;5010309;28;20237;-60
2023/05/22 10:33:07;;;;;;;9.07;7.38;;;;;;;;;;5009379;28;20679;-58
2023/05/22 10:35:39;;;;;;;11.13;7.70;;;;;;;;;;5009170;28;20220;-57
2023/05/22 10:38:12;;;;;;;9.25;7.55;;;;;;;;;;5009282;28;20211;-57
2023/05/22 10:40:40;;;;;;;9.65;7.50;;;;;;;;;;5009186;28;20208;-58
2023/05/22 10:43:09;;;;;;;8.63;6.95;;;;;;;;;;5009419;28;20339;-56
2023/05/22 10:45:36;;;;;;;8.10;6.95;;;;;;;;;;5009819;28;20220;-58
2023/05/22 10:48:04;;;;;;;8.13;7.28;;;;;;;;;;5008780;28;20209;-58
2023/05/22 10:50:31;;;;;;;9.77;7.93;;;;;;;;;;5009327;28;20574;-57
2023/05/22 10:53:17;;;;;;;10.10;8.48;;;;;;;;;;5009318;28;20209;-57
2023/05/22 10:55:47;;;;;;;7.90;7.00;;;;;;;;;;5008937;28;20575;-57
2023/05/22 10:58:15;;;;;;;8.85;7.50;;;;;;;;;;5008690;28;20596;-57
2023/05/22 11:00:42;;;;;;;7.45;6.57;;;;;;;;;;5009214;28;20240;-57
2023/05/22 11:03:10;;;;;;;9.52;8.10;;;;;;;;;;5008581;28;20312;-57
2023/05/22 11:05:38;;;;;;;8.27;7.38;;;;;;;;;;5008239;28;20671;-57
2023/05/22 11:08:12;;;;;;;8.35;7.60;;;;;;;;;;5008560;28;20724;-58
2023/05/22 11:10:52;;;;;;;7.80;7.03;;;;;;;;;;5008726;28;20383;-57
2023/05/22 11:13:20;;;;;;;8.32;7.50;;;;;;;;;;5008255;28;20777;-57
2023/05/22 11:15:47;;;;;;;8.43;7.22;;;;;;;;;;5008670;28;20219;-58
2023/05/22 11:18:15;;;;;;;9.40;7.00;;;;;;;;;;5008261;28;20274;-58
2023/05/22 11:20:43;;;;;;;8.55;7.75;;;;;;;;;;5008287;28;20229;-57
2023/05/22 11:23:11;;;;;;;8.32;7.53;;;;;;;;;;5008089;28;20248;-58
2023/05/22 11:25:38;;;;;;;8.43;6.70;;;;;;;;;;5008480;28;20606;-58
2023/05/22 11:28:06;;;;;;;7.63;6.93;;;;;;;;;;5008068;28;20260;-57
2023/05/22 11:30:35;;;;;;;8.45;6.68;;;;;;;;;;5007777;28;20213;-57
2023/05/22 11:33:02;;;;;;;8.13;7.30;;;;;;;;;;5007786;28;20204;-58
2023/05/22 11:35:29;;;;;;;7.90;7.10;;;;;;;;;;5007902;28;20212;-58
2023/05/22 11:37:57;;;;;;;7.70;6.72;;;;;;;;;;5007861;28;20219;-58
2023/05/22 11:40:25;;;;;;;8.20;7.15;;;;;;;;;;5007798;28;20584;-58
2023/05/22 11:42:53;;;;;;;8.23;7.20;;;;;;;;;;5008127;28;20303;-57
2023/05/22 11:45:20;;;;;;;10.48;6.95;;;;;;;;;;5007781;28;20554;-57
2023/05/22 11:47:48;;;;;;;7.80;7.03;;;;;;;;;;5007713;28;20240;-57
2023/05/22 11:50:15;;;;;;;7.60;6.82;;;;;;;;;;5007644;28;20220;-58
2023/05/22 11:52:44;;;;;;;7.53;6.38;;;;;;;;;;5007683;28;20591;-57
2023/05/22 11:55:11;;;;;;;9.73;8.43;;;;;;;;;;5007664;28;20588;-57
2023/05/22 11:57:38;;;;;;;7.68;6.88;;;;;;;;;;5006674;28;20212;-57
2023/05/22 12:00:07;;;;;;;8.27;7.30;;;;;;;;;;5007863;28;20209;-57
2023/05/22 12:02:34;;;;;;;8.25;6.88;;;;;;;;;;5007484;28;20212;-57
2023/05/22 12:05:03;;;;;;;12.38;7.53;;;;;;;;;;5007023;28;20592;-57
2023/05/22 12:07:30;;;;;;;7.63;6.70;;;;;;;;;;5007527;28;20286;-58
2023/05/22 12:09:57;;;;;;;9.27;7.10;;;;;;;;;;5007163;28;20205;-58
2023/05/22 12:12:24;;;;;;;7.20;6.47;;;;;;;;;;5007105;28;20233;-58
2023/05/22 12:14:51;;;;;;;7.68;6.53;;;;;;;;;;5007347;28;20228;-58
2023/05/22 12:17:18;;;;;;;7.50;6.60;;;;;;;;;;5007608;28;20208;-57
2023/05/22 12:19:46;;;;;;;7.38;6.50;;;;;;;;;;5006401;28;20313;-57
2023/05/22 12:22:15;;;;;;;9.77;6.22;;;;;;;;;;5006845;28;20739;-57
2023/05/22 12:24:45;;;;;;;7.35;6.65;;;;;;;;;;5007253;28;20271;-58
2023/05/22 12:27:12;;;;;;;7.70;6.93;;;;;;;;;;5007095;28;20213;-57
2023/05/22 12:29:39;;;;;;;7.78;6.82;;;;;;;;;;5006521;28;20266;-57
2023/05/22 12:32:08;;;;;;;6.80;6.20;;;;;;;;;;5007218;28;20716;-57
2023/05/22 12:34:35;;;;;;;7.00;6.40;;;;;;;;;;5007597;28;20263;-57
2023/05/22 12:37:02;;;;;;;8.48;6.35;;;;;;;;;;5007055;28;20690;-57
2023/05/22 12:39:31;;;;;;;8.93;7.47;;;;;;;;;;5006708;28;20217;-58
2023/05/22 12:41:58;;;;;;;7.50;6.43;;;;;;;;;;5007123;28;20205;-58
2023/05/22 12:44:26;;;;;;;7.15;6.40;;;;;;;;;;5006965;28;20216;-57
2023/05/22 12:46:53;;;;;;;6.95;6.25;;;;;;;;;;5006620;28;20209;-57
2023/05/22 12:49:20;;;;;;;7.05;6.20;;;;;;;;;;5006304;28;20215;-57
2023/05/22 12:51:47;;;;;;;6.55;5.95;;;;;;;;;;5004117;28;20224;-58
2023/05/22 12:54:14;;;;;;;6.93;6.22;;;;;;;;;;5005826;28;20222;-57
2023/05/22 12:56:43;;;;;;;6.32;5.82;;;;;;;;;;5006407;28;20449;-58
2023/05/22 12:59:10;;;;;;;6.28;5.68;;;;;;;;;;5006378;28;20231;-57
2023/05/22 13:01:37;;;;;;;6.72;5.65;;;;;;;;;;5006258;28;20212;-57
2023/05/22 13:04:04;;;;;;;6.93;5.90;;;;;;;;;;5005796;28;20216;-57
2023/05/22 13:06:31;;;;;;;6.00;5.50;;;;;;;;;;5005896;28;20231;-57
2023/05/22 13:08:58;;;;;;;6.45;5.88;;;;;;;;;;5005630;28;20593;-57
2023/05/22 13:11:25;;;;;;;6.88;6.18;;;;;;;;;;5005997;28;20287;-57
2023/05/22 13:13:53;;;;;;;7.70;6.22;;;;;;;;;;5002041;28;20710;-57
2023/05/22 13:16:20;;;;;;;6.80;6.18;;;;;;;;;;5003162;28;20220;-57
2023/05/22 13:18:48;;;;;;;7.32;5.28;;;;;;;;;;5002419;28;20260;-57
2023/05/22 13:21:15;;;;;;;6.68;6.07;;;;;;;;;;4991743;28;20599;-58
2023/05/22 13:23:42;;;;;;;7.00;6.18;;;;;;;;;;4990345;28;20256;-58
2023/05/22 13:26:09;;;;;;;5.95;5.55;;;;;;;;;;4969037;28;20218;-57
2023/05/22 13:28:36;;;;;;;6.40;5.80;;;;;;;;;;4968113;28;20229;-57
2023/05/22 13:31:05;;;;;;;7.82;5.97;;;;;;;;;;4967960;28;20623;-57
2023/05/22 13:33:32;;;;;;;5.80;5.40;;;;;;;;;;4984989;28;20668;-57
2023/05/22 13:35:59;;;;;;;8.98;5.53;;;;;;;;;;4986311;28;20373;-58
2023/05/22 13:38:26;;;;;;;6.30;5.70;;;;;;;;;;4985741;28;20344;-58
2023/05/22 13:40:53;;;;;;;6.22;5.63;;;;;;;;;;4983838;28;20710;-58
2023/05/22 13:43:20;;;;;;;5.95;5.45;;;;;;;;;;4967515;28;20569;-57
2023/05/22 13:45:47;;;;;;;6.13;5.53;;;;;;;;;;4986338;28;20209;-57
2023/05/22 13:48:16;;;;;;;5.97;5.47;;;;;;;;;;4985581;28;20598;-57
2023/05/22 13:50:43;;;;;;;5.55;5.05;;;;;;;;;;4986267;28;20213;-57
2023/05/22 13:53:10;;;;;;;5.75;5.35;;;;;;;;;;4972147;28;20236;-57
2023/05/22 13:55:37;;;;;;;6.18;5.57;;;;;;;;;;4966275;28;20236;-57
2023/05/22 13:58:04;;;;;;;5.80;5.30;;;;;;;;;;4966549;28;20225;-58
2023/05/22 14:00:31;;;;;;;6.45;5.90;;;;;;;;;;4966670;28;20296;-57
2023/05/22 14:02:58;;;;;;;5.30;4.80;;;;;;;;;;4976192;28;20213;-57
2023/05/22 14:05:27;;;;;;;5.00;4.60;;;;;;;;;;4968269;28;20739;-58
2023/05/22 14:07:55;;;;;;;6.15;5.38;;;;;;;;;;4966751;28;20775;-58
2023/05/22 14:10:22;;;;;;;5.70;5.30;;;;;;;;;;4966477;28;20209;-57
2023/05/22 14:12:49;;;;;;;5.82;5.32;;;;;;;;;;4977915;28;20241;-57
2023/05/22 14:15:16;;;;;;;6.63;5.97;;;;;;;;;;4982205;28;20219;-58
2023/05/22 14:17:43;;;;;;;5.95;5.43;;;;;;;;;;4985397;28;20220;-57
2023/05/22 14:20:11;;;;;;;6.18;5.78;;;;;;;;;;4968231;28;20795;-57
2023/05/22 14:22:39;;;;;;;6.75;6.15;;;;;;;;;;4977236;28;20236;-57
2023/05/22 14:25:06;;;;;;;7.30;5.80;;;;;;;;;;5007665;28;20708;-57
2023/05/22 14:27:33;;;;;;;6.70;6.10;;;;;;;;;;5004853;28;20583;-58
2023/05/22 14:30:00;;;;;;;6.82;5.20;;;;;;;;;;5005926;28;20208;-57
2023/05/22 14:32:27;;;;;;;6.88;5.63;;;;;;;;;;5006285;28;20232;-57
2023/05/22 14:34:55;;;;;;;7.72;5.88;;;;;;;;;;5006392;28;20211;-58
2023/05/22 14:37:22;;;;;;;5.95;5.45;;;;;;;;;;5006770;28;20491;-57
2023/05/22 14:42:53;;;;;;;6.50;5.90;;;;;;;;;;5003367;28;20716;-57
2023/05/22 14:45:20;;;;;;;6.85;5.28;;;;;;;;;;5002788;28;20327;-57
2023/05/22 14:47:47;;;;;;;6.05;4.78;;;;;;;;;;4990400;28;20284;-57
2023/05/22 14:50:14;;;;;;;5.95;5.40;;;;;;;;;;5002836;28;20266;-57